Kula, Hawaii
Current Conditions -  °F | °C
As of 6:54 PM on Friday 21 Nov 2014 (Local Time) from PHOG Reporting Station
Scattered Clouds Scattered Clouds  
Wind Chill: 76°   Ceiling: Unl
Heat Index: 76°   Visibility: 10mi
Dew Point: 68°   Wind: 13mph
Humidity: 76%   Direction: 60°ENE
Pressure: 30"   Gusts: 21mph
Location:  20.77°N, 156.33°W
Report Text: PHOG 220454Z 06011G18KT 10SM SCT055 24/20 A3000 RMK AO2 SLP164 T02440200
Loading
Personal Weather Stations






























Interactive Weather Map New forecast layout! Learn more

10-Day Weather Forecast

Advertisements
Track Severe Weather on mobile